Time;durP1;ratioP1;P1;durP2;ratioP2;P2;SDS_P1;SDS_P2;PMS_P1;PMS_P2;Temp;Humidity;BMP_temperature;BMP_pressure;BME280_temperature;BME280_humidity;BME280_pressure;Samples;Min_cycle;Max_cycle;Signal;HPM_P1;HPM_P2
2023/08/18 00:02:36;;;;;;;7.13;2.22;;;;;;;15.23;100.00;101370.53;5003210;28;20406;-82
2023/08/18 00:05:09;;;;;;;4.75;1.77;;;;;;;15.38;100.00;101366.75;4999723;28;20421;-82
2023/08/18 00:07:42;;;;;;;6.07;1.90;;;;;;;15.26;100.00;101369.09;4998947;28;20676;-82
2023/08/18 00:10:12;;;;;;;3.78;1.80;;;;;;;15.26;100.00;101363.63;5001021;28;20426;-83
2023/08/18 00:12:41;;;;;;;4.72;1.90;;;;;;;15.33;100.00;101364.09;4996332;28;20421;-82
2023/08/18 00:15:09;;;;;;;4.20;1.77;;;;;;;15.27;100.00;101362.50;4999038;28;20441;-82
2023/08/18 00:17:43;;;;;;;4.50;1.77;;;;;;;15.21;100.00;101356.28;4998859;28;20502;-82
2023/08/18 00:20:16;;;;;;;4.60;1.80;;;;;;;15.31;100.00;101358.06;4996708;28;20443;-82
2023/08/18 00:22:49;;;;;;;3.17;1.63;;;;;;;15.28;100.00;101356.72;5003154;28;20453;-83
2023/08/18 00:25:19;;;;;;;4.72;1.80;;;;;;;15.18;100.00;101358.78;4998383;28;20878;-82
2023/08/18 00:27:47;;;;;;;4.55;1.80;;;;;;;15.10;100.00;101357.53;5000632;28;20428;-82
2023/08/18 00:30:24;;;;;;;5.20;1.85;;;;;;;15.04;100.00;101355.94;5005002;28;20436;-82
2023/08/18 00:32:57;;;;;;;4.53;1.80;;;;;;;15.06;100.00;101356.50;4997388;28;20436;-82
2023/08/18 00:35:25;;;;;;;5.25;1.95;;;;;;;14.98;100.00;101354.41;5000584;28;20424;-82
2023/08/18 00:37:58;;;;;;;3.83;1.80;;;;;;;14.97;100.00;101359.06;4997100;28;20453;-83
2023/08/18 00:40:33;;;;;;;5.88;1.83;;;;;;;15.12;100.00;101363.53;4997849;28;20432;-82
2023/08/18 00:43:06;;;;;;;7.18;1.85;;;;;;;15.04;100.00;101353.22;4999889;28;20430;-82
2023/08/18 00:45:35;;;;;;;5.88;2.00;;;;;;;14.93;100.00;101358.03;5005051;28;20439;-82
2023/08/18 00:48:08;;;;;;;5.38;2.00;;;;;;;15.09;100.00;101359.47;5001185;28;20413;-82
2023/08/18 00:50:41;;;;;;;6.43;2.00;;;;;;;15.04;100.00;101359.53;5000137;28;20421;-82
2023/08/18 00:53:10;;;;;;;4.03;2.00;;;;;;;15.10;100.00;101355.59;4996721;28;20809;-82
2023/08/18 00:55:40;;;;;;;4.50;1.90;;;;;;;15.13;100.00;101360.50;5029829;28;20776;-82
2023/08/18 00:58:08;;;;;;;4.87;1.90;;;;;;;15.09;100.00;101354.00;4996990;28;20433;-81
2023/08/18 01:00:42;;;;;;;6.20;2.00;;;;;;;14.94;100.00;101362.38;4998170;28;20439;-82
2023/08/18 01:03:16;;;;;;;7.97;2.30;;;;;;;14.85;100.00;101356.75;5030895;28;20462;-82
2023/08/18 01:05:44;;;;;;;5.15;2.20;;;;;;;14.81;100.00;101357.63;5003559;28;20442;-82
2023/08/18 01:08:18;;;;;;;6.38;2.20;;;;;;;14.78;100.00;101348.88;5016106;28;20419;-82
2023/08/18 01:11:01;;;;;;;6.32;2.20;;;;;;;14.82;100.00;101356.50;5017084;28;20445;-81
2023/08/18 01:13:37;;;;;;;5.90;2.57;;;;;;;14.85;100.00;101350.44;5018032;28;20429;-82
2023/08/18 01:16:10;;;;;;;5.85;2.50;;;;;;;14.88;100.00;101350.66;4999586;28;20418;-82
2023/08/18 01:18:43;;;;;;;6.90;2.58;;;;;;;14.89;100.00;101351.50;5002493;28;20426;-82
2023/08/18 01:21:18;;;;;;;9.43;2.70;;;;;;;14.91;100.00;101349.28;5005743;28;20410;-82
2023/08/18 01:23:52;;;;;;;6.95;2.60;;;;;;;14.90;100.00;101342.97;5007754;28;20440;-82
2023/08/18 01:26:49;;;;;;;5.40;2.33;;;;;;;15.03;100.00;101337.91;5031340;28;20433;-83
2023/08/18 01:29:23;;;;;;;7.55;2.40;;;;;;;15.10;100.00;101333.66;5008265;28;20418;-79
2023/08/18 01:32:01;;;;;;;7.78;2.45;;;;;;;15.07;100.00;101330.72;5019410;28;20430;-80
2023/08/18 01:34:41;;;;;;;9.68;2.40;;;;;;;15.03;100.00;101330.47;5006803;28;20424;-79
2023/08/18 01:37:16;;;;;;;9.38;2.50;;;;;;;15.04;100.00;101328.53;5011198;28;20442;-80
2023/08/18 01:39:53;;;;;;;6.68;2.65;;;;;;;15.05;100.00;101325.53;5007237;28;20424;-79
2023/08/18 01:42:21;;;;;;;8.40;2.80;;;;;;;15.06;100.00;101323.59;5039326;28;20488;-79
2023/08/18 01:45:01;;;;;;;4.60;2.40;;;;;;;15.05;100.00;101317.31;5019720;28;20431;-78
2023/08/18 01:47:29;;;;;;;6.70;2.53;;;;;;;15.06;100.00;101318.13;5012017;28;20451;-79
2023/08/18 01:49:58;;;;;;;8.25;2.55;;;;;;;15.04;100.00;101315.66;5016967;28;20426;-80
2023/08/18 01:52:32;;;;;;;7.40;2.45;;;;;;;15.06;100.00;101310.69;5002633;28;20442;-78
2023/08/18 01:55:01;;;;;;;7.15;2.80;;;;;;;15.10;100.00;101313.69;5014014;28;20420;-81
2023/08/18 01:57:29;;;;;;;7.38;2.60;;;;;;;15.26;100.00;101311.50;4996132;28;20425;-79
2023/08/18 02:00:03;;;;;;;9.88;2.70;;;;;;;15.22;100.00;101322.28;5004653;28;20430;-79
2023/08/18 02:02:39;;;;;;;6.80;2.50;;;;;;;15.17;100.00;101316.84;5014242;28;20423;-80
2023/08/18 02:05:09;;;;;;;6.05;2.72;;;;;;;15.18;100.00;101317.66;5010787;28;20409;-80
2023/08/18 02:07:37;;;;;;;5.55;2.60;;;;;;;15.27;100.00;101311.25;5003057;28;20431;-78
2023/08/18 02:10:07;;;;;;;5.35;2.50;;;;;;;15.23;100.00;101309.38;5010497;28;20904;-79
2023/08/18 02:12:41;;;;;;;6.10;2.40;;;;;;;15.21;100.00;101314.34;5016665;28;20431;-80
2023/08/18 02:15:09;;;;;;;8.38;2.60;;;;;;;15.19;100.00;101309.16;5020287;28;21094;-79
2023/08/18 02:17:37;;;;;;;6.38;2.42;;;;;;;15.20;100.00;101310.78;5009870;28;20416;-78
2023/08/18 02:20:11;;;;;;;6.10;2.60;;;;;;;15.51;100.00;101321.31;5006541;28;20438;-80
2023/08/18 02:22:44;;;;;;;6.20;2.30;;;;;;;15.34;100.00;101312.78;5006059;28;20910;-79
2023/08/18 02:25:14;;;;;;;5.95;2.45;;;;;;;15.26;100.00;101323.31;5011053;28;20411;-79
2023/08/18 02:27:48;;;;;;;7.00;2.70;;;;;;;15.35;100.00;101320.72;5010435;28;20424;-79
2023/08/18 02:30:22;;;;;;;6.85;2.65;;;;;;;15.27;100.00;101319.47;5015805;28;20434;-80
2023/08/18 02:32:55;;;;;;;6.50;2.60;;;;;;;15.26;100.00;101319.75;5010040;28;20436;-79
2023/08/18 02:35:28;;;;;;;9.45;2.83;;;;;;;15.24;100.00;101313.75;5038593;28;20439;-79
2023/08/18 02:37:56;;;;;;;8.18;2.63;;;;;;;15.26;100.00;101315.09;5011339;28;20719;-80
2023/08/18 02:40:31;;;;;;;8.80;2.70;;;;;;;15.27;100.00;101314.00;5023276;28;20437;-78
2023/08/18 02:43:04;;;;;;;6.03;2.72;;;;;;;15.27;100.00;101313.16;5006046;28;20419;-79
2023/08/18 02:45:37;;;;;;;9.10;2.90;;;;;;;15.23;100.00;101309.38;4998659;28;20437;-80
2023/08/18 02:48:11;;;;;;;9.32;3.08;;;;;;;15.21;100.00;101311.63;5038231;28;20464;-80
2023/08/18 02:50:39;;;;;;;9.63;3.00;;;;;;;15.22;100.00;101302.25;5004335;28;20426;-80
2023/08/18 02:53:13;;;;;;;9.23;3.33;;;;;;;15.35;100.00;101304.25;5006590;28;20435;-80
2023/08/18 02:55:42;;;;;;;8.43;3.00;;;;;;;15.44;100.00;101302.50;5006373;28;20440;-80
2023/08/18 02:58:11;;;;;;;8.10;3.00;;;;;;;15.36;100.00;101302.34;5035108;28;20445;-79
2023/08/18 03:00:39;;;;;;;8.70;3.15;;;;;;;15.32;100.00;101304.06;5014088;28;20433;-80
2023/08/18 03:03:12;;;;;;;8.50;2.90;;;;;;;15.27;100.00;101302.19;5006024;28;20417;-79
2023/08/18 03:05:47;;;;;;;9.40;3.33;;;;;;;15.33;100.00;101294.69;5004431;28;20419;-79
2023/08/18 03:08:21;;;;;;;8.70;3.22;;;;;;;15.29;100.00;101295.28;4995631;28;20419;-79
2023/08/18 03:10:56;;;;;;;6.90;2.90;;;;;;;15.28;100.00;101296.41;5005496;28;20417;-79
2023/08/18 03:13:30;;;;;;;7.50;3.38;;;;;;;15.27;100.00;101300.28;5010737;28;20409;-79
2023/08/18 03:16:04;;;;;;;9.52;3.10;;;;;;;15.30;100.00;101302.41;5005383;28;20494;-80
2023/08/18 03:18:37;;;;;;;10.52;3.40;;;;;;;15.30;100.00;101296.09;4996105;28;20418;-78
2023/08/18 03:21:10;;;;;;;7.70;3.40;;;;;;;15.29;100.00;101289.00;4996433;28;20420;-79
2023/08/18 03:23:44;;;;;;;10.30;3.75;;;;;;;15.31;100.00;101286.78;5007188;28;20424;-79
2023/08/18 03:26:18;;;;;;;8.20;3.85;;;;;;;15.41;100.00;101289.38;5008182;28;20432;-79
2023/08/18 03:28:52;;;;;;;8.05;3.45;;;;;;;15.40;100.00;101293.22;5007029;28;20413;-80
2023/08/18 03:31:21;;;;;;;6.85;3.47;;;;;;;15.38;100.00;101298.19;5027734;28;20424;-79
2023/08/18 03:33:54;;;;;;;12.57;4.00;;;;;;;15.35;100.00;101287.81;5008777;28;20440;-79
2023/08/18 03:36:27;;;;;;;10.70;4.30;;;;;;;15.35;100.00;101281.53;4995449;28;20510;-81
2023/08/18 03:38:55;;;;;;;10.77;4.03;;;;;;;15.38;100.00;101286.41;5012951;28;20413;-79
2023/08/18 03:41:25;;;;;;;9.75;3.90;;;;;;;15.38;100.00;101295.44;5010308;28;20424;-79
2023/08/18 03:43:59;;;;;;;8.40;4.28;;;;;;;15.39;100.00;101288.03;5008550;28;20429;-80
2023/08/18 03:46:28;;;;;;;10.52;4.50;;;;;;;15.37;100.00;101284.75;5032173;28;20508;-81
2023/08/18 03:48:59;;;;;;;11.95;4.20;;;;;;;15.42;100.00;101281.94;5008706;28;20426;-79
2023/08/18 03:51:28;;;;;;;11.85;4.78;;;;;;;15.39;100.00;101288.84;5020815;28;20410;-79
2023/08/18 03:54:03;;;;;;;12.50;4.50;;;;;;;15.42;100.00;101282.75;4999063;28;20448;-79
2023/08/18 03:56:37;;;;;;;10.95;4.78;;;;;;;15.40;100.00;101281.44;4999094;28;20413;-79
2023/08/18 03:59:05;;;;;;;10.65;4.60;;;;;;;15.40;100.00;101282.25;5005820;28;20428;-80
2023/08/18 04:01:34;;;;;;;11.30;4.80;;;;;;;15.42;100.00;101279.22;4996374;28;20801;-78
2023/08/18 04:04:04;;;;;;;13.07;4.75;;;;;;;15.43;100.00;101272.63;4997517;28;20421;-79
2023/08/18 04:06:38;;;;;;;12.35;4.63;;;;;;;15.43;100.00;101272.63;5005873;28;20787;-81
2023/08/18 04:09:15;;;;;;;10.23;4.80;;;;;;;15.47;100.00;101274.47;5020019;28;20426;-80
2023/08/18 04:11:50;;;;;;;8.43;4.68;;;;;;;15.45;100.00;101273.13;5037065;28;20434;-79
2023/08/18 04:14:18;;;;;;;10.70;4.65;;;;;;;15.39;100.00;101282.56;4997499;28;20425;-79
2023/08/18 04:16:46;;;;;;;11.15;4.63;;;;;;;15.38;100.00;101276.25;5004172;28;20433;-80
2023/08/18 04:19:20;;;;;;;13.48;4.95;;;;;;;15.40;100.00;101275.97;5020451;28;20424;-80
2023/08/18 04:21:48;;;;;;;12.70;5.43;;;;;;;15.40;100.00;101267.75;5003063;28;20456;-79
2023/08/18 04:24:16;;;;;;;8.80;4.80;;;;;;;15.38;100.00;101273.50;4998791;28;20885;-80
2023/08/18 04:26:59;;;;;;;11.25;5.32;;;;;;;15.41;100.00;101272.91;5004395;28;20425;-81
2023/08/18 04:29:29;;;;;;;12.27;5.20;;;;;;;15.43;100.00;101275.38;5006826;28;20442;-82
2023/08/18 04:32:02;;;;;;;12.73;5.20;;;;;;;15.40;100.00;101273.22;4998078;28;20418;-82
2023/08/18 04:34:30;;;;;;;10.65;5.05;;;;;;;15.38;100.00;101278.19;5016971;28;20430;-82
2023/08/18 04:37:05;;;;;;;12.80;5.18;;;;;;;15.39;100.00;101269.66;5031537;28;20420;-82
2023/08/18 04:39:33;;;;;;;10.95;5.30;;;;;;;15.44;100.00;101277.00;5001317;28;20901;-82
2023/08/18 04:42:02;;;;;;;10.95;4.88;;;;;;;15.42;100.00;101269.03;4997414;28;20431;-82
2023/08/18 04:44:34;;;;;;;11.32;5.40;;;;;;;15.40;100.00;101268.53;4998655;28;20441;-82
2023/08/18 04:47:07;;;;;;;13.13;5.30;;;;;;;15.41;100.00;101272.91;4996260;28;20433;-82
2023/08/18 04:49:41;;;;;;;11.57;5.40;;;;;;;15.43;100.00;101276.16;5002853;28;20434;-82
2023/08/18 04:52:15;;;;;;;12.50;5.50;;;;;;;15.43;100.00;101272.63;4994547;28;20938;-82
2023/08/18 04:54:43;;;;;;;14.80;5.97;;;;;;;15.54;100.00;101265.84;4990452;28;20461;-82
2023/08/18 04:57:17;;;;;;;16.45;6.10;;;;;;;15.50;100.00;101272.25;4994605;28;20436;-82
2023/08/18 04:59:45;;;;;;;13.82;6.22;;;;;;;15.51;100.00;101271.94;4994400;28;20438;-82
2023/08/18 05:02:14;;;;;;;15.68;6.65;;;;;;;15.51;100.00;101266.47;5025483;28;20822;-81
2023/08/18 05:04:42;;;;;;;13.75;6.65;;;;;;;15.53;100.00;101266.97;4991648;28;20445;-83
2023/08/18 05:07:15;;;;;;;15.93;6.70;;;;;;;15.54;100.00;101270.53;4993968;28;20436;-82
2023/08/18 05:09:49;;;;;;;14.07;7.38;;;;;;;15.57;100.00;101264.44;4996062;28;20457;-82
2023/08/18 05:12:23;;;;;;;13.75;6.97;;;;;;;15.63;100.00;101261.31;4996315;28;20453;-81
2023/08/18 05:14:51;;;;;;;15.05;6.55;;;;;;;15.67;100.00;101267.00;5010049;28;20805;-82
2023/08/18 05:17:25;;;;;;;14.25;7.07;;;;;;;15.69;100.00;101266.69;4994520;28;20430;-82
2023/08/18 05:19:58;;;;;;;17.45;7.60;;;;;;;15.70;100.00;101266.44;4996896;28;20445;-82
2023/08/18 05:22:32;;;;;;;17.10;7.10;;;;;;;15.73;100.00;101263.06;4996963;28;20428;-82
2023/08/18 05:25:00;;;;;;;15.40;8.07;;;;;;;15.72;100.00;101272.41;5009202;28;20454;-82
2023/08/18 05:27:30;;;;;;;18.63;7.93;;;;;;;15.68;100.00;101263.16;4995920;28;20422;-82
2023/08/18 05:30:04;;;;;;;18.40;8.23;;;;;;;15.71;100.00;101267.22;5000909;28;20436;-83
2023/08/18 05:32:37;;;;;;;16.10;8.27;;;;;;;15.71;100.00;101254.31;5000091;28;20432;-81
2023/08/18 05:35:11;;;;;;;14.30;7.70;;;;;;;15.78;100.00;101265.75;4995336;28;20433;-82
2023/08/18 05:37:44;;;;;;;15.53;8.13;;;;;;;15.83;100.00;101256.63;5001183;28;21191;-80
2023/08/18 05:40:12;;;;;;;18.75;8.00;;;;;;;15.81;100.00;101262.41;4996631;28;20436;-82
2023/08/18 05:42:43;;;;;;;17.20;8.10;;;;;;;15.81;100.00;101267.91;4992250;28;20536;-80
2023/08/18 05:45:11;;;;;;;14.85;7.75;;;;;;;15.79;100.00;101269.28;4996413;28;20436;-82
2023/08/18 05:47:45;;;;;;;15.73;8.50;;;;;;;15.80;100.00;101271.75;4996910;28;20434;-81
2023/08/18 05:50:13;;;;;;;14.85;8.23;;;;;;;15.85;100.00;101268.09;4992370;28;20432;-82
2023/08/18 05:52:46;;;;;;;17.42;8.43;;;;;;;15.87;100.00;101271.38;4992845;28;20437;-81
2023/08/18 05:55:14;;;;;;;16.05;8.15;;;;;;;15.93;100.00;101267.41;4995708;28;20438;-81
2023/08/18 05:57:44;;;;;;;17.48;8.15;;;;;;;15.98;100.00;101270.06;4996748;28;20430;-81
2023/08/18 06:00:14;;;;;;;15.80;8.60;;;;;;;16.02;100.00;101270.28;4994443;28;20432;-81
2023/08/18 06:02:48;;;;;;;19.05;8.75;;;;;;;16.03;100.00;101268.34;5002681;28;20435;-81
2023/08/18 06:05:16;;;;;;;17.92;8.27;;;;;;;16.01;100.00;101265.09;4994431;28;20448;-82
2023/08/18 06:07:50;;;;;;;14.80;8.50;;;;;;;16.01;100.00;101276.09;4995410;28;20491;-82
2023/08/18 06:10:18;;;;;;;14.40;7.95;;;;;;;16.01;100.00;101270.59;4996485;28;20430;-80
2023/08/18 06:12:53;;;;;;;17.00;9.23;;;;;;;16.01;100.00;101271.41;4995842;28;20433;-81
2023/08/18 06:15:26;;;;;;;16.88;8.95;;;;;;;15.98;100.00;101280.25;4996859;28;20467;-80
2023/08/18 06:17:59;;;;;;;18.50;9.25;;;;;;;15.96;100.00;101275.06;5000395;28;20436;-82
2023/08/18 06:20:27;;;;;;;17.95;9.52;;;;;;;15.98;100.00;101280.25;4995996;28;20435;-81
2023/08/18 06:23:00;;;;;;;18.42;9.05;;;;;;;16.08;100.00;101295.72;4995419;28;20444;-82
2023/08/18 06:25:28;;;;;;;17.63;8.87;;;;;;;16.16;100.00;101292.28;5029226;28;20461;-82
2023/08/18 06:28:03;;;;;;;16.25;9.18;;;;;;;16.25;100.00;101286.91;4996624;28;20441;-82
2023/08/18 06:30:36;;;;;;;14.27;8.75;;;;;;;16.22;100.00;101280.06;4995779;28;20959;-82
2023/08/18 06:33:09;;;;;;;17.63;8.93;;;;;;;16.29;100.00;101283.22;4995810;28;20433;-82
2023/08/18 06:35:43;;;;;;;17.65;8.88;;;;;;;16.40;100.00;101274.81;5001244;28;20449;-83
2023/08/18 06:38:11;;;;;;;15.85;8.90;;;;;;;16.32;100.00;101270.81;4999351;28;20870;-83
2023/08/18 06:40:39;;;;;;;19.17;9.40;;;;;;;16.39;100.00;101281.41;5001295;28;20421;-82
2023/08/18 06:43:08;;;;;;;18.40;9.50;;;;;;;16.36;100.00;101271.03;5004316;28;20852;-82
2023/08/18 06:45:41;;;;;;;18.48;9.25;;;;;;;16.32;100.00;101270.81;5002586;28;20440;-82
2023/08/18 06:48:15;;;;;;;18.85;9.20;;;;;;;16.39;100.00;101274.00;4995850;28;20442;-82
2023/08/18 06:50:48;;;;;;;19.13;9.20;;;;;;;16.43;100.00;101277.75;5029168;28;20448;-85
2023/08/18 06:53:16;;;;;;;16.65;9.05;;;;;;;16.46;100.00;101263.41;4999319;28;20445;-82
2023/08/18 06:55:44;;;;;;;18.95;9.45;;;;;;;16.57;100.00;101268.69;4999377;28;20419;-83
2023/08/18 06:58:14;;;;;;;19.87;9.20;;;;;;;16.62;100.00;101263.91;5027881;28;20449;-83
2023/08/18 07:00:42;;;;;;;15.63;9.80;;;;;;;16.61;100.00;101270.53;4996515;28;20426;-82
2023/08/18 07:03:15;;;;;;;17.27;9.40;;;;;;;16.61;100.00;101269.69;4996775;28;20435;-83
2023/08/18 07:05:43;;;;;;;19.10;9.00;;;;;;;16.69;100.00;101271.72;4998679;28;20417;-82
2023/08/18 07:08:16;;;;;;;17.83;9.48;;;;;;;16.73;100.00;101266.44;4997568;28;20444;-81
2023/08/18 07:10:49;;;;;;;17.58;9.27;;;;;;;16.75;100.00;101273.28;5001337;28;20820;-81
2023/08/18 07:13:24;;;;;;;19.92;9.45;;;;;;;16.76;100.00;101271.31;4998361;28;20436;-82
2023/08/18 07:15:57;;;;;;;18.95;9.65;;;;;;;16.90;100.00;101269.38;4999877;28;20429;-81
2023/08/18 07:18:25;;;;;;;17.20;9.23;;;;;;;16.92;100.00;101275.41;5001082;28;20920;-81
2023/08/18 07:20:59;;;;;;;19.25;9.93;;;;;;;17.04;100.00;101277.63;5001388;28;20427;-82
2023/08/18 07:23:32;;;;;;;20.60;9.80;;;;;;;16.94;100.00;101273.16;4995304;28;20441;-82
2023/08/18 07:26:05;;;;;;;16.85;9.57;;;;;;;16.89;100.00;101276.03;5000800;28;20881;-81
2023/08/18 07:28:35;;;;;;;16.20;9.43;;;;;;;16.93;100.00;101273.47;4999035;28;20426;-81
2023/08/18 07:31:04;;;;;;;17.70;9.75;;;;;;;17.06;100.00;101274.56;4997193;28;20429;-81
2023/08/18 07:33:37;;;;;;;18.30;10.75;;;;;;;17.13;100.00;101283.19;4955385;28;20417;-82
2023/08/18 07:36:10;;;;;;;18.37;10.67;;;;;;;17.20;100.00;101283.59;4982725;28;20444;-82
2023/08/18 07:38:44;;;;;;;17.08;9.93;;;;;;;17.25;100.00;101282.66;4981178;28;20439;-81
2023/08/18 07:41:17;;;;;;;16.42;9.90;;;;;;;17.14;100.00;101287.59;4995090;28;20436;-82
2023/08/18 07:43:51;;;;;;;17.38;10.15;;;;;;;17.33;100.00;101287.41;4987126;28;20428;-82
2023/08/18 07:46:19;;;;;;;16.37;9.20;;;;;;;17.25;100.00;101288.97;4984290;28;20436;-82
2023/08/18 07:48:52;;;;;;;16.77;9.57;;;;;;;17.24;100.00;101281.84;4988149;28;21228;-81
2023/08/18 07:51:26;;;;;;;15.48;9.95;;;;;;;17.22;100.00;101286.03;4982183;28;20932;-82
2023/08/18 07:53:59;;;;;;;15.07;9.07;;;;;;;17.22;100.00;101284.09;4986784;28;21920;-82
2023/08/18 07:56:32;;;;;;;16.20;9.23;;;;;;;17.26;100.00;101289.78;4985553;28;20477;-82
2023/08/18 07:59:06;;;;;;;17.17;9.48;;;;;;;17.28;100.00;101285.59;4984922;28;20443;-81
2023/08/18 08:01:40;;;;;;;16.65;10.02;;;;;;;17.65;100.00;101294.63;4985105;28;20440;-82
2023/08/18 08:04:14;;;;;;;16.25;9.70;;;;;;;17.55;100.00;101294.06;4988487;28;20505;-82
2023/08/18 08:06:42;;;;;;;17.73;10.38;;;;;;;17.34;100.00;101306.38;4978956;28;20440;-82
2023/08/18 08:09:15;;;;;;;14.65;9.70;;;;;;;17.34;100.00;101306.38;4983864;28;21022;-82
2023/08/18 08:11:48;;;;;;;17.50;9.90;;;;;;;17.25;100.00;101297.22;4980402;28;20427;-82
2023/08/18 08:14:23;;;;;;;16.55;10.13;;;;;;;17.27;100.00;101294.97;4983528;28;20416;-82
2023/08/18 08:16:51;;;;;;;16.50;9.80;;;;;;;17.31;100.00;101306.19;4978680;28;20451;-82
2023/08/18 08:19:24;;;;;;;17.58;10.43;;;;;;;17.17;100.00;101306.22;5008439;28;20444;-82
2023/08/18 08:21:58;;;;;;;15.70;10.50;;;;;;;17.16;100.00;101302.63;5008790;28;20778;-82
2023/08/18 08:24:31;;;;;;;17.23;11.25;;;;;;;17.29;100.00;101302.91;4982504;28;20432;-82
2023/08/18 08:27:05;;;;;;;18.05;10.52;;;;;;;17.33;100.00;101304.75;4978523;28;20435;-81
2023/08/18 08:29:39;;;;;;;16.70;10.65;;;;;;;17.18;100.00;101299.59;4982918;28;21068;-82
2023/08/18 08:32:13;;;;;;;16.40;10.43;;;;;;;17.51;100.00;101299.38;4962102;28;20443;-82
2023/08/18 08:34:49;;;;;;;15.73;10.32;;;;;;;17.51;100.00;101299.38;4980676;28;20420;-82
2023/08/18 08:37:22;;;;;;;15.75;10.57;;;;;;;17.45;100.00;101289.63;4985683;28;20428;-82
2023/08/18 08:39:55;;;;;;;19.17;11.38;;;;;;;17.56;100.00;101287.44;4989000;28;20425;-82
2023/08/18 08:42:28;;;;;;;18.60;11.18;;;;;;;17.66;100.00;101287.19;4985250;28;20961;-82
2023/08/18 08:44:58;;;;;;;18.45;11.43;;;;;;;17.63;100.00;101288.59;4995071;28;20428;-82
2023/08/18 08:47:31;;;;;;;17.95;11.43;;;;;;;17.51;100.00;101291.94;4981338;28;20437;-82
2023/08/18 08:50:06;;;;;;;17.10;11.23;;;;;;;17.61;100.00;101290.88;4989224;28;20413;-82
2023/08/18 08:52:40;;;;;;;16.88;10.75;;;;;;;17.82;100.00;101282.91;4987355;28;20435;-83
2023/08/18 08:55:17;;;;;;;20.52;11.90;;;;;;;18.00;100.00;101283.06;4982531;28;20459;-84
2023/08/18 08:57:50;;;;;;;20.10;11.27;;;;;;;18.00;100.00;101286.59;4980646;28;20436;-82
2023/08/18 09:00:25;;;;;;;17.85;10.82;;;;;;;18.04;100.00;101288.75;4980852;28;20439;-86
2023/08/18 09:03:01;;;;;;;16.67;11.30;;;;;;;18.09;100.00;101294.94;4978846;28;20435;-81
2023/08/18 09:05:31;;;;;;;18.30;11.55;;;;;;;18.22;100.00;101284.16;4977907;28;20433;-82
2023/08/18 09:08:04;;;;;;;18.23;12.32;;;;;;;18.14;100.00;101285.72;4981679;28;20432;-82
2023/08/18 09:10:34;;;;;;;18.42;11.85;;;;;;;18.25;100.00;101287.06;4981066;28;20440;-81
2023/08/18 09:13:02;;;;;;;18.63;12.18;;;;;;;18.26;100.00;101282.38;4986486;28;20440;-82
2023/08/18 09:15:36;;;;;;;23.33;11.97;;;;;;;18.32;100.00;101286.59;4982275;28;20436;-82
2023/08/18 09:18:05;;;;;;;18.15;11.45;;;;;;;18.39;100.00;101278.69;4981347;28;21800;-82
2023/08/18 09:20:38;;;;;;;20.23;12.40;;;;;;;18.31;100.00;101276.72;4985699;28;20443;-81
2023/08/18 09:23:12;;;;;;;21.88;11.43;;;;;;;18.40;100.00;101285.03;4981391;28;20440;-82
2023/08/18 09:25:45;;;;;;;19.05;11.63;;;;;;;18.51;100.00;101272.59;4978580;28;20492;-82
2023/08/18 09:28:19;;;;;;;18.10;12.00;;;;;;;18.46;100.00;101281.81;4979086;28;20436;-81
2023/08/18 09:30:53;;;;;;;16.75;11.50;;;;;;;18.59;100.00;101274.56;4985677;28;20433;-82
2023/08/18 09:33:30;;;;;;;18.40;12.18;;;;;;;18.42;100.00;101269.81;4966439;28;20462;-81
2023/08/18 09:36:03;;;;;;;18.35;12.23;;;;;;;18.32;100.00;101268.13;4984354;28;20443;-82
2023/08/18 09:38:39;;;;;;;17.90;12.57;;;;;;;18.36;100.00;101260.03;4987135;28;20420;-81
2023/08/18 09:41:07;;;;;;;18.95;12.93;;;;;;;18.56;100.00;101253.16;4993353;28;20428;-82
2023/08/18 09:43:41;;;;;;;18.15;11.80;;;;;;;18.74;100.00;101256.75;4985398;28;20429;-82
2023/08/18 09:46:17;;;;;;;17.40;11.80;;;;;;;18.73;100.00;101255.13;4986515;28;20440;-82
2023/08/18 09:48:47;;;;;;;20.98;11.63;;;;;;;19.00;100.00;101258.75;4997995;28;20435;-82
2023/08/18 09:51:22;;;;;;;18.98;11.45;;;;;;;18.61;100.00;101264.00;4984727;28;20459;-83
2023/08/18 09:53:58;;;;;;;17.67;11.55;;;;;;;18.82;100.00;101264.22;4989792;28;21038;-82
2023/08/18 09:56:31;;;;;;;19.35;11.93;;;;;;;18.77;100.00;101255.31;4991551;28;20428;-82
2023/08/18 09:59:12;;;;;;;17.52;12.02;;;;;;;18.69;100.00;101256.91;4986145;28;20471;-82
2023/08/18 10:01:48;;;;;;;17.17;12.38;;;;;;;18.69;100.00;101259.66;4985392;28;20427;-82
2023/08/18 10:04:24;;;;;;;19.47;13.07;;;;;;;18.72;100.00;101259.00;5034000;28;20912;-82
2023/08/18 10:06:52;;;;;;;18.42;12.43;;;;;;;19.01;100.00;101260.38;5029206;28;20428;-81
2023/08/18 10:09:33;;;;;;;19.97;12.20;;;;;;;19.18;100.00;101263.16;5005808;28;20442;-82
2023/08/18 10:12:07;;;;;;;16.85;11.90;;;;;;;19.28;100.00;101258.44;5001261;28;20432;-82
2023/08/18 10:14:42;;;;;;;17.17;10.98;;;;;;;19.32;100.00;101253.88;5003323;28;20423;-82
2023/08/18 10:17:21;;;;;;;19.33;11.68;;;;;;;19.01;100.00;101252.09;5003594;28;20436;-81
2023/08/18 10:19:55;;;;;;;17.23;12.00;;;;;;;18.85;100.00;101255.31;5001559;28;20777;-82
2023/08/18 10:22:25;;;;;;;18.33;12.23;;;;;;;19.13;100.00;101254.25;4999883;28;20428;-82
2023/08/18 10:24:58;;;;;;;17.05;12.35;;;;;;;19.04;100.00;101237.66;4998605;28;20461;-82
2023/08/18 10:27:41;;;;;;;19.97;13.07;;;;;;;19.15;100.00;101240.91;5000143;28;20434;-82
2023/08/18 10:30:30;;;;;;;18.45;12.77;;;;;;;19.34;100.00;101240.59;5018234;28;20423;-83
2023/08/18 10:33:08;;;;;;;15.10;11.70;;;;;;;19.91;100.00;101236.75;5002957;28;20437;-82
2023/08/18 10:35:43;;;;;;;16.38;11.52;;;;;;;20.24;100.00;101229.81;5005133;28;20421;-82
2023/08/18 10:38:17;;;;;;;19.27;11.77;;;;;;;20.25;100.00;101231.47;5002510;28;20431;-82
2023/08/18 10:40:52;;;;;;;14.68;11.35;;;;;;;19.98;100.00;101239.84;5001362;28;20433;-82
2023/08/18 10:43:27;;;;;;;16.38;11.18;;;;;;;19.96;100.00;101230.28;5002038;28;20429;-81
2023/08/18 10:46:00;;;;;;;15.98;10.77;;;;;;;19.94;100.00;101243.59;5001461;28;20453;-83
2023/08/18 10:48:34;;;;;;;15.57;11.57;;;;;;;19.81;100.00;101242.66;5004851;28;20424;-82
2023/08/18 10:51:03;;;;;;;14.82;10.60;;;;;;;20.18;100.00;101231.97;5002439;28;20421;-82
2023/08/18 10:53:39;;;;;;;16.33;10.93;;;;;;;20.24;100.00;101238.13;5004642;28;20421;-82
2023/08/18 10:56:12;;;;;;;15.93;11.07;;;;;;;20.03;100.00;101244.38;5030873;28;20517;-82
2023/08/18 10:58:45;;;;;;;15.15;10.65;;;;;;;20.41;100.00;101242.75;4998944;28;20418;-82
2023/08/18 11:01:22;;;;;;;17.83;11.00;;;;;;;20.56;100.00;101243.00;4999729;28;20437;-82
2023/08/18 11:03:51;;;;;;;17.38;11.70;;;;;;;20.77;100.00;101235.88;5030433;28;20515;-83
2023/08/18 11:06:26;;;;;;;15.63;10.48;;;;;;;21.09;100.00;101241.81;5006291;28;20449;-82
2023/08/18 11:09:00;;;;;;;17.67;10.95;;;;;;;21.16;100.00;101242.91;5000005;28;20893;-83
2023/08/18 11:11:33;;;;;;;15.15;10.02;;;;;;;21.11;100.00;101243.13;4999909;28;20443;-83
2023/08/18 11:14:01;;;;;;;17.88;11.13;;;;;;;21.11;100.00;101242.31;4997350;28;20421;-81
2023/08/18 11:16:29;;;;;;;20.45;11.30;;;;;;;21.11;100.00;101247.84;4997135;28;20436;-82
2023/08/18 11:19:05;;;;;;;16.13;11.23;;;;;;;21.16;100.00;101244.88;4980560;28;20427;-83
2023/08/18 11:21:38;;;;;;;17.77;12.23;;;;;;;21.23;100.00;101234.06;4981965;28;20436;-82
2023/08/18 11:24:11;;;;;;;16.27;11.50;;;;;;;21.41;100.00;101229.97;4977644;28;20429;-82
2023/08/18 11:26:46;;;;;;;16.92;11.30;;;;;;;21.62;100.00;101229.16;4982679;28;20432;-82
2023/08/18 11:29:14;;;;;;;15.90;11.05;;;;;;;21.62;100.00;101229.16;4981994;28;20436;-83
2023/08/18 11:31:45;;;;;;;15.20;11.07;;;;;;;21.80;100.00;101223.44;4984854;28;20439;-82
2023/08/18 11:34:21;;;;;;;15.45;11.13;;;;;;;21.80;100.00;101231.75;4985817;28;21958;-82